Pagina principale
METAR-TAF:

METAR-TAF

Aeroporti :

Aeroporto Internazionale di Mostar

Mostar, Bosnia-Erzegovina

latitudine: 43-21N, longitudine: 017-48E, altezza: 108 m

Osservazione

Il bollettino è stato emesso 49 minuti fa, alle 11:00 UTC
Vento 2 kt da direzioni variabili
Temperature 7°C
Umidità 87%
Pressione 1014 hPa
Visibilità 10 km o più
Poco nuvoloso ad un'altezza di 2000 ft
Nubi sparse ad un'altezza di 4000 ft
Nuvoloso ad un'altezza di 7000 ft
pioggia debole

METAR: LQMO 211100Z VRB02KT 9999 -RA FEW020 SCT040 BKN070 07/05 Q1014

Ora: 12:49 (11:49 UTC)

Previsione

Il bollettino è stato emesso 49 minuti fa, alle 11:00 UTC
Previsione valida dal 21 alle 12 UTC al 22 alle 12 UTC
Vento 5 kt da nord-est
Visibilità 10 km o più
Nuvoloso ad un'altezza di 4000 ft
Nuvoloso ad un'altezza di 6500 ft
Temporaneamente
dal 21 alle 23 UTC al 22 alle 12 UTC
Visibilità: 4000 m
pioggia

TAF: LQMO 211100Z 2112/2212 04005KT 9999 BKN040 BKN065 TX08/2112Z TN05/2206Z TEMPO 2123/2212 4000 RA

Osservazioni e previsioni meteorologiche di più di 4000 aeroporti (messaggi METAR e TAF).

Le stazioni disponibili sono rappresentate dai dischi gialli e rossi sulla carta.

Puntare il mouse per vedere il nome della stazione.

Clicca sopra per visualizzare le osservazioni e previsioni meteorologiche.

Per cambiare la mappa : fare clic sui pulsanti verdi con una croce nera per ingrandire, il pulsante verde con un trattino per diminuire, o sulla freccia verde per le mappe adiacenti.


METAR-TAF: